createdAt,value
2023-01-03T00:00:37.443Z,22.67
2023-01-03T00:01:40.642Z,22.76
2023-01-03T00:02:42.698Z,23.29
2023-01-03T00:03:44.863Z,22.07
2023-01-03T00:04:49.650Z,24.13
2023-01-03T00:05:50.778Z,23.76
2023-01-03T00:06:53.698Z,24.62
2023-01-03T00:07:56.180Z,21.19
2023-01-03T00:09:00.206Z,22.23
2023-01-03T00:10:08.794Z,20.54
2023-01-03T00:11:17.202Z,22.81
2023-01-03T00:12:19.235Z,21.88
2023-01-03T00:13:23.146Z,20.75
2023-01-03T00:14:28.680Z,21.17
2023-01-03T00:15:36.416Z,20.54
2023-01-03T00:16:39.544Z,19.66
2023-01-03T00:17:42.632Z,23.21
2023-01-03T00:18:45.284Z,22.07
2023-01-03T00:19:47.290Z,25.37
2023-01-03T00:20:50.233Z,22.70
2023-01-03T00:21:53.716Z,23.57
2023-01-03T00:22:55.869Z,18.74
2023-01-03T00:23:57.819Z,50.13
2023-01-03T00:25:01.056Z,16.58
2023-01-03T00:26:14.239Z,21.37
2023-01-03T00:27:16.667Z,20.54
2023-01-03T00:28:18.720Z,119.60
2023-01-03T00:29:21.605Z,20.54
2023-01-03T00:30:23.882Z,46.90
2023-01-03T00:31:26.592Z,20.67
2023-01-03T00:32:28.781Z,19.91
2023-01-03T00:33:32.251Z,24.80
2023-01-03T00:34:35.403Z,20.81
2023-01-03T00:35:37.399Z,20.99
2023-01-03T00:36:40.229Z,19.97
2023-01-03T00:37:43.541Z,18.27
2023-01-03T00:38:45.915Z,18.57
2023-01-03T00:39:47.842Z,19.81
2023-01-03T00:40:50.047Z,20.75
2023-01-03T00:41:53.377Z,19.52
2023-01-03T00:42:55.266Z,25.42
2023-01-03T00:43:58.079Z,25.60
2023-01-03T00:45:00.140Z,27.48
2023-01-03T00:46:03.586Z,39.39
2023-01-03T00:47:05.654Z,40.56
2023-01-03T00:48:07.621Z,38.77
2023-01-03T00:49:10.379Z,44.13
2023-01-03T00:50:12.578Z,40.43
2023-01-03T00:51:18.100Z,41.03
2023-01-03T00:52:20.136Z,41.51
2023-01-03T00:53:22.942Z,41.70
2023-01-03T00:54:25.893Z,35.13
2023-01-03T00:55:27.969Z,32.31
2023-01-03T00:56:33.341Z,31.55
2023-01-03T00:57:35.397Z,25.00
2023-01-03T00:58:38.042Z,19.59
2023-01-03T00:59:39.984Z,19.11
2023-01-03T01:00:42.192Z,19.31
2023-01-03T01:01:52.386Z,19.11
2023-01-03T01:02:55.398Z,17.32
2023-01-03T01:05:30.051Z,15.42
2023-01-03T01:07:44.823Z,15.59
2023-01-03T01:08:48.823Z,14.53
2023-01-03T01:09:50.717Z,16.52
2023-01-03T01:10:52.709Z,15.00
2023-01-03T01:11:55.645Z,14.69
2023-01-03T01:12:57.559Z,13.79
2023-01-03T01:14:00.030Z,14.40
2023-01-03T01:15:01.921Z,14.63
2023-01-03T01:16:07.708Z,14.16
2023-01-03T01:17:10.120Z,14.00
2023-01-03T01:18:12.007Z,13.16
2023-01-03T01:19:15.515Z,13.58
2023-01-03T01:20:18.303Z,14.82
2023-01-03T01:21:23.977Z,15.47
2023-01-03T01:22:26.105Z,13.84
2023-01-03T01:23:27.971Z,15.18
2023-01-03T01:24:31.533Z,15.25
2023-01-03T01:25:34.033Z,12.58
2023-01-03T01:26:36.560Z,15.23
2023-01-03T01:27:38.488Z,14.33
2023-01-03T01:28:42.208Z,15.78
2023-01-03T01:29:44.383Z,16.88
2023-01-03T01:30:46.544Z,16.46
2023-01-03T01:31:49.109Z,18.30
2023-01-03T01:32:51.165Z,19.21
2023-01-03T01:33:55.640Z,25.40
2023-01-03T01:34:57.553Z,22.64
2023-01-03T01:36:05.097Z,21.01
2023-01-03T01:37:07.277Z,22.11
2023-01-03T01:38:09.324Z,26.59
2023-01-03T01:39:14.803Z,24.91
2023-01-03T01:40:18.440Z,26.54
2023-01-03T01:41:20.419Z,22.09
2023-01-03T01:42:24.981Z,24.09
2023-01-03T01:43:26.582Z,17.44
2023-01-03T01:45:00.240Z,18.27
2023-01-03T01:46:06.080Z,18.30
2023-01-03T01:47:23.665Z,18.61
2023-01-03T01:48:25.905Z,17.81
2023-01-03T01:49:27.807Z,17.04
2023-01-03T01:50:42.960Z,16.62
2023-01-03T01:51:45.559Z,18.87
2023-01-03T01:53:05.893Z,19.97
2023-01-03T01:54:09.099Z,17.62
2023-01-03T01:55:14.747Z,20.36
2023-01-03T01:56:24.497Z,20.55
2023-01-03T01:57:28.434Z,15.31
2023-01-03T01:58:36.391Z,15.98
2023-01-03T01:59:38.606Z,17.90
2023-01-03T02:00:42.934Z,16.17
2023-01-03T02:01:48.032Z,19.61
2023-01-03T02:02:52.942Z,16.86
2023-01-03T02:04:01.851Z,21.21
2023-01-03T02:05:07.886Z,21.51
2023-01-03T02:06:13.703Z,19.39
2023-01-03T02:07:18.276Z,18.65
2023-01-03T02:08:21.190Z,21.82
2023-01-03T02:09:26.167Z,25.15
2023-01-03T02:10:48.853Z,22.24
2023-01-03T02:11:54.531Z,25.42
2023-01-03T02:13:16.855Z,32.89
2023-01-03T02:14:46.961Z,33.36
2023-01-03T02:16:10.819Z,32.26
2023-01-03T02:17:34.632Z,33.00
2023-01-03T02:19:03.711Z,34.63
2023-01-03T02:20:21.703Z,35.89
2023-01-03T02:21:48.202Z,34.28
2023-01-03T02:22:54.096Z,30.14
2023-01-03T02:24:18.295Z,32.13
2023-01-03T02:25:30.037Z,26.13
2023-01-03T02:26:50.781Z,29.92
2023-01-03T02:28:28.901Z,25.42
2023-01-03T02:29:53.031Z,26.86
2023-01-03T02:31:11.526Z,26.37
2023-01-03T02:35:20.214Z,27.20
2023-01-03T02:36:28.764Z,24.70
2023-01-03T02:37:34.539Z,24.78
2023-01-03T02:38:58.816Z,24.19
2023-01-03T02:40:04.617Z,27.91
2023-01-03T02:41:19.612Z,25.26
2023-01-03T02:42:26.223Z,27.71
2023-01-03T02:43:31.910Z,26.73
2023-01-03T02:44:37.622Z,26.07
2023-01-03T02:45:52.306Z,26.96
2023-01-03T02:47:02.433Z,29.46
2023-01-03T02:48:14.392Z,28.49
2023-01-03T02:49:26.607Z,27.03
2023-01-03T02:50:32.680Z,29.86
2023-01-03T02:51:44.602Z,27.83
2023-01-03T02:52:49.917Z,28.46
2023-01-03T02:53:52.616Z,26.78
2023-01-03T02:55:07.889Z,28.60
2023-01-03T02:56:14.495Z,27.84
2023-01-03T02:57:20.224Z,26.79
2023-01-03T02:58:26.008Z,29.77
2023-01-03T02:59:43.319Z,27.37
2023-01-03T03:00:48.925Z,26.83
2023-01-03T03:01:52.471Z,27.54
2023-01-03T03:02:59.341Z,27.18
2023-01-03T03:04:04.572Z,27.17
2023-01-03T03:05:10.418Z,26.73
2023-01-03T03:06:45.992Z,27.47
2023-01-03T03:07:48.517Z,30.20
2023-01-03T03:08:51.172Z,26.46
2023-01-03T03:09:55.993Z,28.66
2023-01-03T03:10:58.924Z,26.91
2023-01-03T03:12:03.017Z,25.21
2023-01-03T03:13:17.807Z,26.36
2023-01-03T03:14:29.043Z,25.94
2023-01-03T03:15:34.739Z,25.25
2023-01-03T03:19:02.014Z,25.58
2023-01-03T03:20:14.095Z,28.35
2023-01-03T03:21:19.485Z,26.68
2023-01-03T03:22:34.297Z,25.77
2023-01-03T03:23:39.196Z,25.92
2023-01-03T03:24:41.972Z,26.74
2023-01-03T03:25:50.730Z,26.09
2023-01-03T03:26:55.665Z,25.76
2023-01-03T03:28:04.127Z,26.62
2023-01-03T03:29:10.607Z,28.77
2023-01-03T03:30:17.288Z,27.04
2023-01-03T03:31:29.180Z,25.79
2023-01-03T03:32:34.506Z,27.21
2023-01-03T03:33:43.189Z,26.56
2023-01-03T03:34:46.553Z,24.47
2023-01-03T03:35:58.517Z,27.21
2023-01-03T03:37:07.017Z,29.99
2023-01-03T03:38:12.279Z,27.93
2023-01-03T03:39:15.534Z,28.54
2023-01-03T03:40:21.003Z,28.03
2023-01-03T03:41:38.805Z,28.15
2023-01-03T03:42:44.499Z,28.23
2023-01-03T03:43:50.298Z,25.58
2023-01-03T03:45:01.029Z,27.99
2023-01-03T03:46:09.396Z,30.77
2023-01-03T03:47:41.374Z,30.46
2023-01-03T03:49:07.105Z,30.37
2023-01-03T03:50:22.572Z,31.33
2023-01-03T03:51:28.453Z,29.29
2023-01-03T03:52:33.187Z,31.21
2023-01-03T03:53:38.670Z,29.03
2023-01-03T03:54:44.567Z,36.54
2023-01-03T03:55:53.103Z,31.76
2023-01-03T03:56:58.981Z,27.02
2023-01-03T03:58:04.949Z,28.61
2023-01-03T03:59:10.391Z,28.87
2023-01-03T04:00:20.025Z,29.81
2023-01-03T04:01:25.114Z,29.72
2023-01-03T04:02:30.084Z,29.83
2023-01-03T04:03:34.105Z,29.39
2023-01-03T04:04:40.112Z,29.15
2023-01-03T04:05:51.743Z,30.57
2023-01-03T04:06:54.527Z,30.81
2023-01-03T04:07:57.273Z,30.36
2023-01-03T04:09:00.091Z,29.63
2023-01-03T04:10:05.235Z,30.92
2023-01-03T04:11:08.120Z,31.86
2023-01-03T04:12:10.301Z,28.49
2023-01-03T04:13:12.527Z,30.50
2023-01-03T04:14:15.804Z,29.47
2023-01-03T04:15:18.338Z,28.50
2023-01-03T04:16:21.013Z,27.25
2023-01-03T04:17:23.266Z,27.92
2023-01-03T04:18:26.773Z,28.42
2023-01-03T04:19:29.015Z,27.53
2023-01-03T04:20:31.115Z,29.22
2023-01-03T04:21:33.121Z,28.81
2023-01-03T04:22:36.122Z,26.58
2023-01-03T04:23:38.015Z,28.25
2023-01-03T04:24:39.900Z,29.91
2023-01-03T04:25:41.790Z,28.21
2023-01-03T04:26:44.055Z,28.22
2023-01-03T04:27:46.275Z,30.55
2023-01-03T04:28:48.159Z,32.61
2023-01-03T04:29:50.024Z,31.08
2023-01-03T04:30:52.201Z,30.70
2023-01-03T04:31:54.509Z,28.72
2023-01-03T04:32:57.081Z,28.79
2023-01-03T04:33:59.068Z,25.49
2023-01-03T04:35:01.029Z,30.19
2023-01-03T04:36:03.633Z,27.49
2023-01-03T04:37:05.785Z,28.63
2023-01-03T04:38:08.079Z,28.04
2023-01-03T04:39:09.956Z,26.70
2023-01-03T04:40:14.039Z,26.48
2023-01-03T04:41:16.818Z,27.56
2023-01-03T04:42:19.495Z,30.04
2023-01-03T04:43:21.392Z,27.03
2023-01-03T04:44:23.260Z,25.68
2023-01-03T04:45:25.201Z,27.61
2023-01-03T04:46:30.253Z,30.57
2023-01-03T04:47:32.169Z,30.69
2023-01-03T04:48:34.085Z,32.04
2023-01-03T04:49:36.070Z,29.83
2023-01-03T04:50:38.273Z,32.99
2023-01-03T04:51:40.133Z,30.43
2023-01-03T04:52:42.001Z,33.10
2023-01-03T04:53:43.869Z,31.62
2023-01-03T04:54:45.942Z,36.73
2023-01-03T04:55:49.874Z,29.34
2023-01-03T04:56:53.242Z,29.95
2023-01-03T04:57:55.162Z,29.72
2023-01-03T04:58:57.258Z,27.80
2023-01-03T04:59:59.149Z,28.21
2023-01-03T05:01:03.590Z,31.79
2023-01-03T05:02:05.819Z,29.11
2023-01-03T05:03:10.030Z,29.47
2023-01-03T05:04:12.000Z,29.75
2023-01-03T05:05:14.855Z,30.95
2023-01-03T05:06:18.033Z,29.26
2023-01-03T05:07:19.909Z,26.11
2023-01-03T05:08:21.781Z,29.34
2023-01-03T05:09:24.358Z,26.93
2023-01-03T05:10:26.565Z,27.41
2023-01-03T05:11:28.622Z,27.23
2023-01-03T05:12:32.458Z,28.03
2023-01-03T05:13:34.718Z,29.19
2023-01-03T05:14:36.609Z,31.23
2023-01-03T05:15:38.820Z,30.55
2023-01-03T05:16:41.899Z,28.18
2023-01-03T05:17:43.804Z,29.26
2023-01-03T05:18:45.681Z,31.45
2023-01-03T05:19:48.103Z,31.11
2023-01-03T05:20:50.285Z,27.55
2023-01-03T05:21:52.160Z,29.45
2023-01-03T05:22:54.047Z,28.50
2023-01-03T05:23:55.933Z,28.13
2023-01-03T05:24:57.827Z,27.95
2023-01-03T05:26:02.614Z,30.02
2023-01-03T05:27:05.581Z,30.00
2023-01-03T05:28:10.958Z,27.68
2023-01-03T05:29:14.414Z,28.66
2023-01-03T05:30:16.850Z,34.41
2023-01-03T05:31:19.588Z,30.45
2023-01-03T05:32:21.667Z,28.26
2023-01-03T05:33:24.621Z,28.61
2023-01-03T05:34:26.743Z,27.34
2023-01-03T05:35:28.743Z,29.54
2023-01-03T05:36:31.247Z,28.01
2023-01-03T05:37:33.140Z,33.05
2023-01-03T05:38:36.648Z,29.30
2023-01-03T05:39:39.410Z,30.37
2023-01-03T05:40:42.605Z,28.45
2023-01-03T05:41:44.543Z,28.79
2023-01-03T05:42:46.436Z,28.50
2023-01-03T05:43:48.466Z,29.11
2023-01-03T05:44:50.583Z,29.85
2023-01-03T05:45:54.346Z,32.19
2023-01-03T05:46:59.263Z,30.11
2023-01-03T05:48:01.278Z,30.42
2023-01-03T05:49:03.173Z,31.85
2023-01-03T05:50:07.328Z,31.39
2023-01-03T05:51:09.260Z,30.54
2023-01-03T05:52:11.295Z,32.45
2023-01-03T05:53:13.190Z,32.35
2023-01-03T05:54:17.537Z,32.06
2023-01-03T05:55:20.309Z,29.18
2023-01-03T05:56:23.251Z,29.89
2023-01-03T05:57:28.283Z,27.48
2023-01-03T05:58:29.229Z,27.59
2023-01-03T05:59:31.095Z,29.10
2023-01-03T06:00:34.132Z,28.91
2023-01-03T06:01:36.583Z,29.62
2023-01-03T06:02:39.728Z,30.87
2023-01-03T06:03:44.416Z,38.39
2023-01-03T06:04:46.538Z,30.62
2023-01-03T06:05:50.576Z,31.85
2023-01-03T06:06:52.666Z,30.61
2023-01-03T06:07:54.547Z,31.83
2023-01-03T06:08:56.552Z,32.41
2023-01-03T06:09:58.968Z,35.85
2023-01-03T06:11:06.987Z,34.05
2023-01-03T06:12:09.149Z,36.03
2023-01-03T06:13:11.613Z,32.71
2023-01-03T06:14:14.487Z,31.53
2023-01-03T06:15:16.548Z,30.27
2023-01-03T06:16:24.684Z,31.16
2023-01-03T06:17:25.146Z,32.37
2023-01-03T06:18:27.693Z,28.43
2023-01-03T06:19:30.075Z,27.56
2023-01-03T06:20:32.377Z,30.48
2023-01-03T06:21:35.261Z,32.58
2023-01-03T06:22:38.541Z,30.46
2023-01-03T06:23:40.927Z,34.20
2023-01-03T06:24:42.923Z,29.09
2023-01-03T06:25:44.820Z,24.88
2023-01-03T06:26:47.036Z,31.51
2023-01-03T06:27:49.125Z,29.64
2023-01-03T06:28:51.738Z,30.98
2023-01-03T06:29:53.794Z,28.58
2023-01-03T06:30:56.026Z,28.58
2023-01-03T06:32:01.104Z,31.01
2023-01-03T06:33:02.082Z,35.01
2023-01-03T06:34:04.892Z,30.67
2023-01-03T06:35:08.117Z,39.77
2023-01-03T06:36:13.487Z,34.95
2023-01-03T06:37:16.424Z,33.96
2023-01-03T06:38:18.431Z,31.22
2023-01-03T06:39:20.805Z,28.99
2023-01-03T06:40:23.437Z,34.72
2023-01-03T06:41:25.394Z,30.65
2023-01-03T06:42:27.365Z,37.78
2023-01-03T06:43:29.728Z,34.74
2023-01-03T06:44:31.701Z,30.94
2023-01-03T06:45:33.708Z,31.99
2023-01-03T06:46:36.241Z,31.62
2023-01-03T06:47:38.462Z,31.46
2023-01-03T06:48:40.739Z,30.13
2023-01-03T06:49:42.673Z,33.23
2023-01-03T06:50:45.289Z,31.01
2023-01-03T06:51:49.132Z,33.65
2023-01-03T06:52:51.057Z,29.14
2023-01-03T06:53:53.415Z,31.24
2023-01-03T06:54:55.479Z,31.62
2023-01-03T06:55:58.084Z,31.92
2023-01-03T06:57:00.646Z,32.87
2023-01-03T06:58:03.190Z,30.49
2023-01-03T06:59:05.177Z,31.96
2023-01-03T07:00:09.246Z,31.41
2023-01-03T07:01:13.963Z,31.81
2023-01-03T07:02:16.056Z,32.98
2023-01-03T07:03:18.681Z,32.88
2023-01-03T07:04:23.217Z,30.38
2023-01-03T07:05:25.191Z,30.90
2023-01-03T07:06:27.474Z,29.33
2023-01-03T07:07:29.384Z,31.70
2023-01-03T07:08:31.270Z,31.95
2023-01-03T07:09:33.355Z,27.38
2023-01-03T07:10:35.491Z,29.51
2023-01-03T07:11:39.003Z,29.13
2023-01-03T07:12:41.026Z,32.79
2023-01-03T07:13:42.993Z,30.82
2023-01-03T07:14:44.859Z,30.39
2023-01-03T07:15:46.796Z,31.01
2023-01-03T07:16:49.710Z,35.33
2023-01-03T07:17:51.593Z,38.27
2023-01-03T07:18:55.498Z,38.82
2023-01-03T07:19:57.825Z,38.28
2023-01-03T07:20:59.921Z,32.55
2023-01-03T07:22:03.969Z,27.35
2023-01-03T07:23:05.869Z,30.22
2023-01-03T07:24:10.239Z,28.21
2023-01-03T07:25:12.311Z,29.02
2023-01-03T07:26:14.975Z,28.25
2023-01-03T07:27:16.893Z,27.77
2023-01-03T07:28:18.964Z,23.40
2023-01-03T07:29:21.096Z,26.00
2023-01-03T07:30:23.825Z,25.94
2023-01-03T07:31:25.848Z,27.69
2023-01-03T07:32:27.915Z,24.76
2023-01-03T07:33:31.683Z,23.12
2023-01-03T07:34:33.610Z,24.43
2023-01-03T07:35:36.566Z,21.34
2023-01-03T07:36:38.672Z,21.74
2023-01-03T07:37:40.793Z,25.19
2023-01-03T07:38:44.482Z,25.63
2023-01-03T07:39:46.736Z,23.11
2023-01-03T07:40:48.710Z,21.99
2023-01-03T07:41:50.575Z,22.34
2023-01-03T07:42:52.987Z,22.94
2023-01-03T07:43:54.873Z,20.86
2023-01-03T07:44:56.804Z,21.61
2023-01-03T07:45:58.724Z,22.99
2023-01-03T07:47:01.199Z,21.62
2023-01-03T07:48:03.881Z,20.53
2023-01-03T07:49:11.254Z,20.70
2023-01-03T07:50:09.780Z,21.03
2023-01-03T07:51:13.481Z,20.83
2023-01-03T07:52:15.997Z,19.10
2023-01-03T07:53:18.625Z,18.87
2023-01-03T07:54:20.728Z,19.98
2023-01-03T07:55:22.608Z,18.94
2023-01-03T07:56:25.927Z,18.89
2023-01-03T07:57:28.157Z,19.47
2023-01-03T07:58:30.277Z,17.77
2023-01-03T07:59:32.166Z,17.42
2023-01-03T08:00:35.051Z,17.65
2023-01-03T08:01:37.301Z,18.12
2023-01-03T08:02:39.563Z,18.79
2023-01-03T08:03:42.703Z,16.57
2023-01-03T08:04:45.662Z,17.67
2023-01-03T08:05:48.404Z,20.59
2023-01-03T08:06:50.502Z,17.33
2023-01-03T08:07:53.649Z,17.32
2023-01-03T08:08:58.896Z,18.54
2023-01-03T08:09:59.484Z,17.34
2023-01-03T08:11:02.203Z,17.66
2023-01-03T08:12:05.173Z,20.25
2023-01-03T08:13:10.046Z,19.34
2023-01-03T08:14:12.067Z,21.12
2023-01-03T08:15:14.178Z,18.69
2023-01-03T08:16:18.550Z,22.35
2023-01-03T08:17:20.672Z,18.84
2023-01-03T08:18:28.131Z,20.11
2023-01-03T08:19:30.258Z,20.51
2023-01-03T08:20:32.505Z,19.90
2023-01-03T08:21:34.577Z,20.73
2023-01-03T08:22:36.695Z,18.95
2023-01-03T08:23:40.516Z,21.03
2023-01-03T08:24:42.534Z,19.89
2023-01-03T08:25:44.515Z,19.24
2023-01-03T08:26:47.093Z,19.51
2023-01-03T08:27:50.522Z,20.81
2023-01-03T08:28:52.571Z,22.36
2023-01-03T08:29:54.552Z,18.69
2023-01-03T08:30:58.821Z,20.15
2023-01-03T08:32:01.903Z,18.33
2023-01-03T08:33:06.859Z,20.35
2023-01-03T08:34:16.888Z,21.49
2023-01-03T08:35:16.595Z,20.11
2023-01-03T08:36:20.260Z,17.74
2023-01-03T08:37:22.268Z,18.73
2023-01-03T08:38:30.880Z,19.79
2023-01-03T08:39:36.575Z,22.19
2023-01-03T08:40:42.404Z,21.14
2023-01-03T08:41:47.881Z,20.56
2023-01-03T08:42:50.233Z,19.81
2023-01-03T08:43:53.391Z,18.71
2023-01-03T08:46:11.516Z,19.16
2023-01-03T08:47:15.994Z,18.11
2023-01-03T08:48:21.358Z,17.89
2023-01-03T08:49:25.461Z,21.53
2023-01-03T08:50:29.327Z,19.22
2023-01-03T08:51:32.004Z,18.88
2023-01-03T08:52:35.423Z,17.42
2023-01-03T08:53:39.211Z,19.51
2023-01-03T08:54:41.094Z,20.55
2023-01-03T08:55:43.769Z,21.00
2023-01-03T08:56:45.968Z,18.43
2023-01-03T08:57:47.869Z,18.71
2023-01-03T08:58:49.742Z,17.91
2023-01-03T08:59:51.604Z,15.39
2023-01-03T09:00:55.116Z,19.04
2023-01-03T09:02:00.784Z,16.95
2023-01-03T09:03:03.875Z,22.96
2023-01-03T09:04:06.839Z,19.27
2023-01-03T09:05:09.685Z,19.56
2023-01-03T09:06:12.263Z,17.67
2023-01-03T09:07:14.313Z,17.65
2023-01-03T09:08:17.080Z,17.56
2023-01-03T09:09:19.734Z,17.27
2023-01-03T09:10:22.717Z,23.04
2023-01-03T09:11:25.383Z,18.57
2023-01-03T09:12:27.536Z,17.97
2023-01-03T09:13:29.423Z,17.21
2023-01-03T09:14:31.541Z,16.71
2023-01-03T09:15:33.466Z,17.77
2023-01-03T09:16:35.737Z,16.41
2023-01-03T09:17:37.947Z,18.51
2023-01-03T09:18:40.970Z,18.73
2023-01-03T09:19:43.047Z,17.92
2023-01-03T09:20:49.121Z,16.68
2023-01-03T09:21:51.042Z,16.99
2023-01-03T09:22:53.050Z,17.89
2023-01-03T09:23:55.156Z,17.44
2023-01-03T09:24:57.136Z,16.23
2023-01-03T09:26:00.191Z,16.55
2023-01-03T09:27:04.721Z,16.97
2023-01-03T09:28:06.627Z,17.01
2023-01-03T09:29:08.530Z,17.52
2023-01-03T09:30:12.187Z,16.22
2023-01-03T09:31:14.134Z,17.96
2023-01-03T09:32:16.138Z,20.02
2023-01-03T09:33:18.321Z,15.45
2023-01-03T09:34:20.340Z,17.85
2023-01-03T09:35:22.330Z,16.11
2023-01-03T09:36:26.088Z,16.30
2023-01-03T09:37:27.967Z,17.41
2023-01-03T09:38:29.966Z,15.97
2023-01-03T09:39:33.179Z,16.87
2023-01-03T09:40:43.927Z,18.67
2023-01-03T09:41:46.523Z,16.12
2023-01-03T09:42:50.500Z,14.63
2023-01-03T09:43:59.049Z,19.14
2023-01-03T09:45:01.958Z,16.51
2023-01-03T09:46:04.708Z,16.77
2023-01-03T09:47:12.651Z,16.40
2023-01-03T09:48:33.391Z,15.66
2023-01-03T09:49:51.932Z,16.77
2023-01-03T09:51:52.173Z,15.01
2023-01-03T09:52:55.462Z,16.23
2023-01-03T09:53:58.045Z,14.09
2023-01-03T09:55:00.305Z,15.27
2023-01-03T09:56:03.295Z,18.18
2023-01-03T09:57:09.078Z,15.01
2023-01-03T09:58:14.139Z,16.77
2023-01-03T09:59:17.479Z,15.96
2023-01-03T10:00:29.522Z,14.13
2023-01-03T10:01:45.139Z,14.97
2023-01-03T10:04:43.279Z,17.54
2023-01-03T10:06:00.947Z,17.20
2023-01-03T10:07:09.696Z,13.73
2023-01-03T10:08:40.042Z,16.02
2023-01-03T10:10:07.901Z,14.57
2023-01-03T10:11:11.209Z,15.46
2023-01-03T10:12:49.261Z,14.68
2023-01-03T10:14:07.266Z,16.13
2023-01-03T10:15:19.061Z,14.86
2023-01-03T10:16:28.607Z,14.79
2023-01-03T10:17:44.357Z,15.19
2023-01-03T10:18:59.032Z,14.47
2023-01-03T10:20:08.296Z,14.98
2023-01-03T10:21:29.232Z,16.08
2023-01-03T10:22:32.620Z,12.86
2023-01-03T10:23:35.348Z,14.34
2023-01-03T10:26:12.727Z,14.01
2023-01-03T10:27:21.977Z,14.79
2023-01-03T10:28:27.452Z,14.39
2023-01-03T10:29:29.704Z,13.89
2023-01-03T10:30:38.441Z,14.90
2023-01-03T10:31:55.762Z,14.28
2023-01-03T10:33:13.566Z,14.31
2023-01-03T10:34:15.797Z,14.66
2023-01-03T10:35:23.342Z,13.06
2023-01-03T10:36:26.087Z,15.98
2023-01-03T10:37:29.142Z,14.85
2023-01-03T10:38:35.268Z,13.29
2023-01-03T10:39:35.676Z,13.61
2023-01-03T10:40:47.894Z,13.53
2023-01-03T10:41:50.091Z,13.04
2023-01-03T10:42:53.087Z,16.42
2023-01-03T10:44:01.999Z,14.89
2023-01-03T10:45:16.881Z,13.96
2023-01-03T10:46:22.204Z,17.67
2023-01-03T10:47:25.157Z,13.07
2023-01-03T10:49:17.113Z,14.76
2023-01-03T10:49:45.869Z,15.03
2023-01-03T10:50:48.558Z,13.71
2023-01-03T10:51:54.228Z,15.61
2023-01-03T10:54:37.554Z,12.41
2023-01-03T10:55:53.255Z,15.85
2023-01-03T10:56:56.820Z,12.95
2023-01-03T10:58:02.153Z,13.06
2023-01-03T10:59:25.826Z,13.75
2023-01-03T11:00:38.246Z,11.69
2023-01-03T11:02:01.046Z,12.59
2023-01-03T11:03:13.300Z,12.79
2023-01-03T11:04:16.764Z,14.80
2023-01-03T11:05:22.419Z,13.08
2023-01-03T11:06:26.439Z,12.59
2023-01-03T11:07:28.728Z,13.63
2023-01-03T11:08:40.428Z,13.15
2023-01-03T11:09:57.137Z,12.28
2023-01-03T11:11:00.387Z,15.21
2023-01-03T11:12:11.986Z,11.60
2023-01-03T11:13:38.987Z,13.27
2023-01-03T11:14:44.801Z,12.48
2023-01-03T11:15:50.502Z,13.37
2023-01-03T11:18:16.828Z,13.31
2023-01-03T11:19:20.159Z,12.94
2023-01-03T11:20:38.579Z,16.62
2023-01-03T11:21:44.254Z,11.02
2023-01-03T11:22:58.682Z,13.68
2023-01-03T11:24:16.879Z,14.10
2023-01-03T11:25:34.384Z,11.88
2023-01-03T11:26:40.841Z,17.11
2023-01-03T11:28:03.734Z,16.13
2023-01-03T11:29:24.172Z,13.75
2023-01-03T11:30:39.277Z,16.26
2023-01-03T11:32:20.664Z,17.04
2023-01-03T11:33:43.457Z,15.74
2023-01-03T11:35:28.575Z,13.53
2023-01-03T11:36:44.466Z,14.77
2023-01-03T11:38:06.818Z,13.28
2023-01-03T11:39:27.057Z,13.23
2023-01-03T11:40:47.076Z,14.85
2023-01-03T11:42:09.769Z,14.64
2023-01-03T11:43:27.726Z,14.17
2023-01-03T11:44:51.821Z,13.05
2023-01-03T11:46:20.920Z,17.96
2023-01-03T11:47:49.117Z,13.32
2023-01-03T11:49:28.255Z,13.32
2023-01-03T11:50:55.614Z,14.56
2023-01-03T11:52:07.610Z,16.12
2023-01-03T11:53:37.491Z,15.67
2023-01-03T11:55:17.489Z,18.22
2023-01-03T11:56:35.569Z,27.10
2023-01-03T11:58:04.440Z,14.53
2023-01-03T11:59:19.730Z,14.65
2023-01-03T12:00:31.793Z,14.19
2023-01-03T12:01:46.374Z,15.97
2023-01-03T12:02:55.180Z,14.49
2023-01-03T12:04:04.120Z,14.93
2023-01-03T12:05:39.914Z,14.92
2023-01-03T12:07:45.748Z,14.88
2023-01-03T12:08:18.179Z,14.16
2023-01-03T12:09:26.867Z,27.79
2023-01-03T12:10:32.755Z,15.22
2023-01-03T12:12:08.280Z,15.99
2023-01-03T12:13:27.106Z,14.99
2023-01-03T12:14:39.368Z,18.02
2023-01-03T12:15:47.809Z,14.13
2023-01-03T12:16:56.872Z,11.48
2023-01-03T12:18:26.541Z,16.22
2023-01-03T12:19:32.256Z,15.19
2023-01-03T12:20:38.285Z,13.56
2023-01-03T12:21:44.068Z,13.59
2023-01-03T12:24:14.819Z,14.28
2023-01-03T12:25:27.150Z,14.23
2023-01-03T12:26:31.701Z,13.38
2023-01-03T12:28:04.923Z,15.18
2023-01-03T12:29:13.976Z,12.67
2023-01-03T12:30:47.030Z,12.96
2023-01-03T12:31:55.815Z,14.16
2023-01-03T12:33:16.737Z,14.58
2023-01-03T12:34:31.703Z,12.40
2023-01-03T12:35:43.558Z,15.44
2023-01-03T12:37:07.699Z,14.46
2023-01-03T12:38:11.633Z,14.23
2023-01-03T12:39:33.464Z,12.02
2023-01-03T12:40:49.265Z,13.06
2023-01-03T12:42:24.227Z,13.11
2023-01-03T12:43:30.307Z,16.06
2023-01-03T12:44:41.591Z,13.53
2023-01-03T12:46:12.995Z,12.66
2023-01-03T12:47:28.078Z,14.59
2023-01-03T12:48:46.195Z,14.49
2023-01-03T12:50:00.478Z,17.85
2023-01-03T12:51:02.804Z,13.99
2023-01-03T12:52:11.603Z,12.35
2023-01-03T12:53:28.538Z,13.38
2023-01-03T12:54:43.292Z,13.46
2023-01-03T12:56:05.919Z,13.61
2023-01-03T12:57:31.733Z,13.30
2023-01-03T12:59:06.383Z,14.13
2023-01-03T13:00:24.516Z,11.13
2023-01-03T13:01:31.074Z,12.96
2023-01-03T13:02:52.361Z,15.31
2023-01-03T13:04:04.271Z,13.39
2023-01-03T13:05:28.522Z,12.93
2023-01-03T13:06:34.432Z,13.93
2023-01-03T13:07:41.028Z,13.44
2023-01-03T13:08:49.785Z,14.43
2023-01-03T13:11:20.057Z,12.47
2023-01-03T13:13:26.329Z,11.94
2023-01-03T13:14:28.947Z,12.86
2023-01-03T13:15:37.342Z,10.69
2023-01-03T13:16:47.722Z,11.09
2023-01-03T13:17:50.162Z,11.71
2023-01-03T13:18:52.209Z,12.35
2023-01-03T13:20:27.208Z,13.78
2023-01-03T13:21:56.065Z,74.43
2023-01-03T13:23:18.836Z,20.99
2023-01-03T13:24:49.748Z,11.46
2023-01-03T13:26:07.683Z,11.12
2023-01-03T13:27:19.654Z,13.63
2023-01-03T13:28:25.491Z,9.91
2023-01-03T13:29:42.813Z,10.74
2023-01-03T13:30:45.711Z,13.18
2023-01-03T13:32:03.260Z,10.95
2023-01-03T13:33:15.038Z,12.34
2023-01-03T13:34:30.069Z,11.14
2023-01-03T13:35:35.876Z,11.56
2023-01-03T13:37:05.050Z,11.01
2023-01-03T13:38:25.171Z,11.38
2023-01-03T13:41:25.927Z,12.62
2023-01-03T13:42:34.722Z,10.48
2023-01-03T13:43:39.988Z,9.38
2023-01-03T13:44:41.655Z,9.72
2023-01-03T13:45:47.424Z,9.91
2023-01-03T13:46:50.749Z,9.23
2023-01-03T13:47:54.042Z,9.50
2023-01-03T13:49:08.631Z,15.43
2023-01-03T13:50:30.340Z,8.61
2023-01-03T13:51:42.397Z,9.34
2023-01-03T13:53:11.194Z,8.47
2023-01-03T13:54:16.884Z,9.41
2023-01-03T13:55:50.647Z,9.73
2023-01-03T13:56:53.044Z,8.93
2023-01-03T13:57:55.415Z,9.68
2023-01-03T13:59:04.161Z,10.59
2023-01-03T14:00:13.867Z,7.98
2023-01-03T14:02:35.868Z,7.97
2023-01-03T14:04:03.512Z,8.06
2023-01-03T14:05:33.141Z,8.81
2023-01-03T14:06:42.125Z,9.96
2023-01-03T14:08:09.153Z,8.06
2023-01-03T14:09:20.629Z,8.41
2023-01-03T14:10:43.333Z,8.42
2023-01-03T14:11:55.213Z,8.96
2023-01-03T14:13:27.190Z,8.16
2023-01-03T14:14:32.401Z,7.18
2023-01-03T14:15:34.465Z,9.39
2023-01-03T14:16:43.377Z,8.42
2023-01-03T14:19:20.019Z,8.53
2023-01-03T14:20:32.427Z,7.82
2023-01-03T14:23:11.636Z,9.22
2023-01-03T14:24:08.001Z,9.97
2023-01-03T14:25:31.947Z,8.86
2023-01-03T14:26:35.356Z,9.57
2023-01-03T14:27:39.570Z,7.74
2023-01-03T14:28:48.020Z,6.65
2023-01-03T14:29:52.561Z,9.52
2023-01-03T14:31:04.872Z,6.64
2023-01-03T14:32:19.857Z,9.14
2023-01-03T14:33:24.541Z,13.29
2023-01-03T14:34:33.049Z,11.03
2023-01-03T14:35:39.298Z,9.40
2023-01-03T14:36:47.022Z,7.21
2023-01-03T14:37:49.115Z,8.93
2023-01-03T14:38:54.484Z,9.25
2023-01-03T14:39:59.314Z,8.34
2023-01-03T14:41:02.248Z,7.97
2023-01-03T14:42:06.767Z,8.50
2023-01-03T14:43:14.763Z,8.45
2023-01-03T14:44:16.161Z,7.76
2023-01-03T14:45:20.076Z,7.57
2023-01-03T14:46:22.976Z,7.79
2023-01-03T14:47:34.414Z,8.99
2023-01-03T14:49:48.012Z,10.59
2023-01-03T14:50:52.261Z,7.42
2023-01-03T14:51:57.958Z,10.95
2023-01-03T14:53:01.769Z,12.52
2023-01-03T14:54:06.220Z,11.29